createdAt,value
2023-06-14T00:01:01.751Z,8.77
2023-06-14T00:03:28.334Z,8.90
2023-06-14T00:05:54.840Z,8.95
2023-06-14T00:08:21.597Z,8.93
2023-06-14T00:10:48.409Z,8.15
2023-06-14T00:13:15.263Z,12.00
2023-06-14T00:15:41.686Z,11.90
2023-06-14T00:18:08.553Z,7.93
2023-06-14T00:20:35.051Z,12.67
2023-06-14T00:23:02.628Z,10.57
2023-06-14T00:25:30.300Z,8.55
2023-06-14T00:27:58.563Z,9.50
2023-06-14T00:30:26.045Z,8.90
2023-06-14T00:32:53.040Z,9.93
2023-06-14T00:35:19.980Z,11.10
2023-06-14T00:37:46.898Z,7.68
2023-06-14T00:40:13.966Z,8.40
2023-06-14T00:42:40.750Z,8.35
2023-06-14T00:45:07.931Z,10.50
2023-06-14T00:47:35.793Z,9.27
2023-06-14T00:50:02.908Z,11.75
2023-06-14T00:52:29.716Z,8.77
2023-06-14T00:54:56.251Z,11.27
2023-06-14T00:57:22.989Z,9.13
2023-06-14T00:59:50.400Z,10.73
2023-06-14T01:02:17.757Z,9.18
2023-06-14T01:04:47.717Z,8.85
2023-06-14T01:07:30.247Z,10.93
2023-06-14T01:10:08.702Z,8.63
2023-06-14T01:13:02.874Z,10.85
2023-06-14T01:15:32.150Z,8.23
2023-06-14T01:17:58.945Z,7.75
2023-06-14T01:20:30.213Z,9.50
2023-06-14T01:22:56.803Z,11.40
2023-06-14T01:25:23.905Z,11.02
2023-06-14T01:27:54.180Z,8.98
2023-06-14T01:30:21.881Z,9.15
2023-06-14T01:32:50.815Z,10.35
2023-06-14T01:35:17.718Z,10.70
2023-06-14T01:37:47.771Z,9.48
2023-06-14T01:40:16.718Z,10.32
2023-06-14T01:42:45.205Z,9.57
2023-06-14T01:45:12.671Z,8.88
2023-06-14T01:47:39.994Z,10.80
2023-06-14T01:50:07.208Z,9.93
2023-06-14T01:52:33.735Z,8.98
2023-06-14T01:55:00.275Z,10.57
2023-06-14T01:57:26.764Z,11.15
2023-06-14T01:59:53.573Z,10.17
2023-06-14T02:02:20.619Z,11.70
2023-06-14T02:04:47.135Z,7.90
2023-06-14T02:07:13.726Z,9.02
2023-06-14T02:09:41.421Z,9.98
2023-06-14T02:12:08.910Z,11.50
2023-06-14T02:14:35.503Z,9.00
2023-06-14T02:17:02.041Z,8.60
2023-06-14T02:19:28.689Z,8.88
2023-06-14T02:21:55.216Z,10.15
2023-06-14T02:24:21.787Z,10.80
2023-06-14T02:26:48.409Z,8.43
2023-06-14T02:29:15.063Z,9.38
2023-06-14T02:31:42.260Z,10.38
2023-06-14T02:34:09.114Z,10.05
2023-06-14T02:36:36.512Z,9.70
2023-06-14T02:39:03.002Z,9.32
2023-06-14T02:41:29.491Z,8.95
2023-06-14T02:43:56.027Z,9.52
2023-06-14T02:46:22.496Z,8.98
2023-06-14T02:48:49.629Z,9.90
2023-06-14T02:51:16.228Z,10.73
2023-06-14T02:53:42.763Z,10.50
2023-06-14T02:56:09.379Z,10.43
2023-06-14T02:58:37.972Z,9.18
2023-06-14T03:01:06.285Z,10.20
2023-06-14T03:03:32.883Z,9.13
2023-06-14T03:05:59.444Z,8.98
2023-06-14T03:08:26.030Z,9.52
2023-06-14T03:10:52.643Z,10.27
2023-06-14T03:13:19.128Z,13.10
2023-06-14T03:15:45.581Z,12.38
2023-06-14T03:18:12.339Z,8.88
2023-06-14T03:20:39.707Z,8.60
2023-06-14T03:23:07.879Z,11.82
2023-06-14T03:25:34.393Z,9.20
2023-06-14T03:28:00.945Z,9.93
2023-06-14T03:30:27.483Z,9.52
2023-06-14T03:32:54.135Z,9.75
2023-06-14T03:35:20.647Z,8.77
2023-06-14T03:37:47.832Z,11.40
2023-06-14T03:40:16.752Z,10.45
2023-06-14T03:42:43.582Z,9.68
2023-06-14T03:45:10.419Z,10.45
2023-06-14T03:47:37.071Z,10.60
2023-06-14T03:50:04.827Z,9.37
2023-06-14T03:52:31.374Z,10.18
2023-06-14T03:55:55.512Z,9.52
2023-06-14T03:57:44.630Z,9.43
2023-06-14T04:00:12.037Z,8.75
2023-06-14T04:02:38.866Z,11.10
2023-06-14T04:05:05.698Z,9.52
2023-06-14T04:07:32.281Z,9.75
2023-06-14T04:09:58.873Z,11.57
2023-06-14T04:12:25.405Z,9.88
2023-06-14T04:14:52.047Z,10.27
2023-06-14T04:17:18.748Z,9.20
2023-06-14T04:19:45.619Z,10.35
2023-06-14T04:22:12.328Z,10.73
2023-06-14T04:24:39.117Z,10.32
2023-06-14T04:27:06.029Z,8.60
2023-06-14T04:29:32.671Z,7.90
2023-06-14T04:31:59.335Z,11.52
2023-06-14T04:34:29.341Z,9.88
2023-06-14T04:36:56.188Z,11.02
2023-06-14T04:39:24.023Z,10.87
2023-06-14T04:41:50.861Z,9.48
2023-06-14T04:44:17.356Z,9.25
2023-06-14T04:46:43.798Z,10.95
2023-06-14T04:49:10.253Z,8.15
2023-06-14T04:51:36.742Z,9.67
2023-06-14T04:54:03.559Z,9.35
2023-06-14T04:56:30.130Z,8.48
2023-06-14T04:58:56.597Z,9.05
2023-06-14T05:01:23.572Z,10.13
2023-06-14T05:03:50.565Z,10.00
2023-06-14T05:06:17.105Z,12.18
2023-06-14T05:08:43.926Z,10.95
2023-06-14T05:11:10.593Z,9.82
2023-06-14T05:13:37.143Z,10.45
2023-06-14T05:16:03.830Z,12.37
2023-06-14T05:18:30.396Z,10.23
2023-06-14T05:20:57.089Z,11.82
2023-06-14T05:23:23.804Z,9.75
2023-06-14T05:25:50.278Z,10.23
2023-06-14T05:28:16.815Z,8.63
2023-06-14T05:30:43.429Z,10.02
2023-06-14T05:33:10.185Z,10.82
2023-06-14T05:35:36.868Z,10.10
2023-06-14T05:38:03.446Z,11.45
2023-06-14T05:40:30.305Z,9.80
2023-06-14T05:42:56.955Z,11.05
2023-06-14T05:45:23.536Z,11.20
2023-06-14T05:47:50.107Z,10.77
2023-06-14T05:50:17.046Z,13.52
2023-06-14T05:52:43.643Z,10.30
2023-06-14T05:55:10.355Z,12.75
2023-06-14T05:57:36.890Z,10.60
2023-06-14T06:00:03.883Z,12.50
2023-06-14T06:02:30.556Z,9.45
2023-06-14T06:04:57.176Z,9.73
2023-06-14T06:07:23.810Z,10.77
2023-06-14T06:09:50.259Z,10.82
2023-06-14T06:12:16.802Z,8.75
2023-06-14T06:14:43.421Z,9.80
2023-06-14T06:17:10.151Z,11.73
2023-06-14T06:19:36.829Z,12.07
2023-06-14T06:22:03.746Z,8.93
2023-06-14T06:24:30.370Z,10.98
2023-06-14T06:26:56.989Z,8.32
2023-06-14T06:29:23.470Z,11.23
2023-06-14T06:31:50.294Z,9.20
2023-06-14T06:34:16.987Z,9.30
2023-06-14T06:36:43.558Z,10.25
2023-06-14T06:39:10.304Z,11.10
2023-06-14T06:41:40.082Z,11.33
2023-06-14T06:44:09.716Z,9.48
2023-06-14T06:46:36.503Z,11.73
2023-06-14T06:49:03.073Z,11.10
2023-06-14T06:51:29.572Z,9.75
2023-06-14T06:53:56.294Z,11.87
2023-06-14T06:56:22.907Z,11.30
2023-06-14T06:58:52.958Z,10.52
2023-06-14T07:01:19.695Z,9.50
2023-06-14T07:03:46.822Z,10.98
2023-06-14T07:06:13.631Z,9.10
2023-06-14T07:08:40.330Z,11.07
2023-06-14T07:11:06.916Z,14.73
2023-06-14T07:13:33.535Z,14.73
2023-06-14T07:16:01.114Z,11.82
2023-06-14T07:18:28.279Z,9.80
2023-06-14T07:20:55.327Z,9.43
2023-06-14T07:23:21.973Z,9.07
2023-06-14T07:25:48.498Z,9.52
2023-06-14T07:28:15.461Z,12.40
2023-06-14T07:30:43.383Z,11.53
2023-06-14T07:33:10.086Z,11.35
2023-06-14T07:35:36.624Z,9.30
2023-06-14T07:38:03.245Z,9.82
2023-06-14T07:40:29.690Z,10.07
2023-06-14T07:42:56.352Z,12.47
2023-06-14T07:45:22.910Z,12.00
2023-06-14T07:47:49.470Z,10.55
2023-06-14T07:50:16.026Z,10.98
2023-06-14T07:52:42.763Z,11.77
2023-06-14T07:55:09.688Z,11.83
2023-06-14T07:57:36.338Z,13.80
2023-06-14T08:00:03.430Z,10.68
2023-06-14T08:02:30.025Z,10.13
2023-06-14T08:04:56.594Z,10.82
2023-06-14T08:07:23.100Z,10.67
2023-06-14T08:09:49.744Z,12.98
2023-06-14T08:12:16.323Z,12.10
2023-06-14T08:14:43.792Z,11.35
2023-06-14T08:17:10.485Z,9.85
2023-06-14T08:19:37.045Z,10.90
2023-06-14T08:22:03.658Z,9.95
2023-06-14T08:24:30.403Z,12.05
2023-06-14T08:26:56.992Z,10.18
2023-06-14T08:29:23.734Z,12.77
2023-06-14T08:31:50.254Z,10.83
2023-06-14T08:34:16.886Z,10.50
2023-06-14T08:36:43.432Z,11.70
2023-06-14T08:39:10.351Z,10.90
2023-06-14T08:41:37.074Z,12.43
2023-06-14T08:44:04.127Z,11.77
2023-06-14T08:46:33.955Z,14.23
2023-06-14T08:49:02.501Z,13.50
2023-06-14T08:51:31.870Z,9.05
2023-06-14T08:53:58.615Z,11.73
2023-06-14T08:56:29.676Z,12.13
2023-06-14T08:58:57.782Z,10.43
2023-06-14T09:01:24.995Z,9.18
2023-06-14T09:03:52.544Z,10.32
2023-06-14T09:06:20.024Z,11.35
2023-06-14T09:08:47.794Z,12.00
2023-06-14T09:11:15.744Z,10.27
2023-06-14T09:13:43.343Z,10.70
2023-06-14T09:16:10.611Z,12.80
2023-06-14T09:18:42.421Z,11.82
2023-06-14T09:21:09.641Z,9.87
2023-06-14T09:23:43.860Z,11.90
2023-06-14T09:26:15.056Z,9.98
2023-06-14T09:28:46.755Z,10.00
2023-06-14T09:31:15.080Z,11.38
2023-06-14T09:33:54.448Z,10.73
2023-06-14T09:36:25.366Z,9.50
2023-06-14T09:38:58.706Z,10.10
2023-06-14T09:41:35.789Z,9.38
2023-06-14T09:44:08.372Z,8.77
2023-06-14T09:46:37.857Z,14.50
2023-06-14T09:49:05.950Z,9.13
2023-06-14T09:51:32.886Z,10.95
2023-06-14T09:54:04.018Z,8.60
2023-06-14T09:56:42.568Z,12.13
2023-06-14T09:59:11.039Z,10.80
2023-06-14T10:01:45.926Z,9.57
2023-06-14T10:04:16.044Z,8.68
2023-06-14T10:06:46.698Z,9.38
2023-06-14T10:09:13.822Z,9.20
2023-06-14T10:11:40.506Z,8.03
2023-06-14T10:14:07.710Z,8.55
2023-06-14T10:16:40.346Z,8.27
2023-06-14T10:19:21.402Z,9.95
2023-06-14T10:22:07.099Z,11.70
2023-06-14T10:24:39.384Z,8.33
2023-06-14T10:27:08.176Z,9.98
2023-06-14T10:29:34.781Z,7.90
2023-06-14T10:32:01.915Z,11.52
2023-06-14T10:34:30.792Z,8.32
2023-06-14T10:37:08.294Z,7.90
2023-06-14T10:39:41.808Z,7.63
2023-06-14T10:42:08.838Z,10.32
2023-06-14T10:44:39.586Z,7.38
2023-06-14T10:47:21.317Z,6.90
2023-06-14T10:49:51.864Z,7.47
2023-06-14T10:52:22.470Z,7.57
2023-06-14T10:55:05.780Z,9.25
2023-06-14T10:57:41.711Z,8.10
2023-06-14T11:00:16.022Z,6.45
2023-06-14T11:03:20.248Z,8.00
2023-06-14T11:05:49.571Z,8.02
2023-06-14T11:08:28.308Z,7.47
2023-06-14T11:11:00.835Z,9.02
2023-06-14T11:13:28.828Z,7.97
2023-06-14T11:15:56.461Z,7.67
2023-06-14T11:18:23.264Z,6.22
2023-06-14T11:20:49.804Z,6.53
2023-06-14T11:23:16.329Z,8.05
2023-06-14T11:25:43.135Z,6.28
2023-06-14T11:28:09.811Z,8.40
2023-06-14T11:30:36.437Z,5.68
2023-06-14T11:33:03.126Z,7.15
2023-06-14T11:35:29.892Z,6.30
2023-06-14T11:37:57.397Z,7.85
2023-06-14T11:40:27.991Z,7.27
2023-06-14T11:43:03.876Z,6.40
2023-06-14T11:45:31.592Z,5.55
2023-06-14T11:47:59.934Z,7.70
2023-06-14T11:50:27.364Z,5.80
2023-06-14T11:52:59.079Z,5.97
2023-06-14T11:55:26.029Z,5.03
2023-06-14T11:57:55.329Z,5.10
2023-06-14T12:00:26.082Z,6.43
2023-06-14T12:02:56.607Z,5.53
2023-06-14T12:05:23.809Z,5.20
2023-06-14T12:07:51.235Z,7.10
2023-06-14T12:10:17.885Z,6.03
2023-06-14T12:12:44.415Z,5.93
2023-06-14T12:15:11.448Z,5.97
2023-06-14T12:17:38.875Z,4.80
2023-06-14T12:20:13.406Z,9.02
2023-06-14T12:22:40.060Z,5.63
2023-06-14T12:25:06.729Z,7.70
2023-06-14T12:27:33.313Z,5.65
2023-06-14T12:30:01.196Z,5.80
2023-06-14T12:32:28.141Z,6.35
2023-06-14T12:34:55.177Z,6.65
2023-06-14T12:37:21.715Z,8.18
2023-06-14T12:39:48.868Z,5.82
2023-06-14T12:42:15.441Z,6.63
2023-06-14T12:44:42.301Z,7.15
2023-06-14T12:47:08.889Z,6.43
2023-06-14T12:49:35.519Z,6.80
2023-06-14T12:52:02.080Z,5.30
2023-06-14T12:54:39.210Z,9.10
2023-06-14T12:57:07.663Z,5.18
2023-06-14T12:59:34.310Z,7.90
2023-06-14T13:02:13.518Z,6.88
2023-06-14T13:04:40.458Z,5.68
2023-06-14T13:07:06.996Z,6.97
2023-06-14T13:09:33.661Z,6.35
2023-06-14T13:12:00.191Z,5.38
2023-06-14T13:14:26.725Z,8.43
2023-06-14T13:16:53.565Z,7.68
2023-06-14T13:19:20.286Z,7.97
2023-06-14T13:21:46.934Z,6.03
2023-06-14T13:24:13.628Z,7.78
2023-06-14T13:26:40.535Z,8.50
2023-06-14T13:29:07.234Z,6.13
2023-06-14T13:31:33.844Z,7.93
2023-06-14T13:34:00.407Z,6.80
2023-06-14T13:36:27.018Z,10.02
2023-06-14T13:38:53.646Z,5.80
2023-06-14T13:41:20.240Z,5.90
2023-06-14T13:43:46.718Z,5.70
2023-06-14T13:46:13.426Z,5.53
2023-06-14T13:48:39.943Z,7.43
2023-06-14T13:51:06.492Z,7.45
2023-06-14T13:53:32.977Z,6.28
2023-06-14T13:55:59.926Z,8.00
2023-06-14T13:58:26.852Z,6.63
2023-06-14T14:00:53.416Z,6.32
2023-06-14T14:03:19.996Z,7.47
2023-06-14T14:05:46.691Z,5.47
2023-06-14T14:08:13.334Z,8.63
2023-06-14T14:10:39.816Z,6.20
2023-06-14T14:13:06.413Z,7.53
2023-06-14T14:15:32.899Z,7.20
2023-06-14T14:17:59.496Z,7.40
2023-06-14T14:20:26.061Z,6.73
2023-06-14T14:22:52.599Z,9.25
2023-06-14T14:25:19.091Z,6.45
2023-06-14T14:27:45.789Z,7.93
2023-06-14T14:30:12.831Z,7.32
2023-06-14T14:32:39.733Z,7.87
2023-06-14T14:35:07.085Z,6.25
2023-06-14T14:37:33.527Z,5.90
2023-06-14T14:40:00.214Z,7.35
2023-06-14T14:42:26.674Z,7.88
2023-06-14T14:44:53.539Z,6.23
2023-06-14T14:47:20.176Z,6.32
2023-06-14T14:49:46.903Z,6.32
2023-06-14T14:52:23.425Z,6.00
2023-06-14T14:54:51.069Z,6.35
2023-06-14T14:57:17.613Z,6.83
2023-06-14T14:59:44.137Z,5.18
2023-06-14T15:02:10.806Z,6.85
2023-06-14T15:04:37.431Z,10.10
2023-06-14T15:07:04.291Z,6.93
2023-06-14T15:09:30.918Z,6.67
2023-06-14T15:11:57.565Z,7.93
2023-06-14T15:14:24.092Z,8.68
2023-06-14T15:16:50.636Z,6.30
2023-06-14T15:19:19.264Z,5.57
2023-06-14T15:21:45.793Z,5.70
2023-06-14T15:24:12.606Z,6.30
2023-06-14T15:26:39.208Z,9.45
2023-06-14T15:29:05.740Z,7.05
2023-06-14T15:31:32.433Z,6.93
2023-06-14T15:33:59.114Z,5.47
2023-06-14T15:36:26.123Z,5.63
2023-06-14T15:38:53.230Z,5.22
2023-06-14T15:41:19.868Z,7.90
2023-06-14T15:43:46.493Z,6.80
2023-06-14T15:46:13.050Z,7.33
2023-06-14T15:48:39.626Z,7.40
2023-06-14T15:51:06.302Z,6.68
2023-06-14T15:53:32.827Z,7.43
2023-06-14T15:55:59.586Z,6.40
2023-06-14T15:58:26.102Z,6.83
2023-06-14T16:00:52.768Z,7.28
2023-06-14T16:03:19.542Z,6.72
2023-06-14T16:05:46.392Z,6.53
2023-06-14T16:08:19.008Z,6.63
2023-06-14T16:10:52.529Z,8.87
2023-06-14T16:13:19.284Z,6.00
2023-06-14T16:15:45.797Z,5.40
2023-06-14T16:18:12.504Z,5.00
2023-06-14T16:20:39.184Z,6.93
2023-06-14T16:23:05.781Z,5.40
2023-06-14T16:25:32.461Z,5.80
2023-06-14T16:27:58.985Z,5.72
2023-06-14T16:30:27.499Z,5.15
2023-06-14T16:32:54.058Z,6.70
2023-06-14T16:35:20.680Z,5.77
2023-06-14T16:37:47.290Z,5.28
2023-06-14T16:40:14.081Z,7.55
2023-06-14T16:42:40.957Z,5.32
2023-06-14T16:45:08.209Z,6.47
2023-06-14T16:47:34.798Z,6.87
2023-06-14T16:50:01.444Z,7.00
2023-06-14T16:52:28.172Z,5.43
2023-06-14T16:54:54.744Z,6.97
2023-06-14T16:57:21.404Z,5.40
2023-06-14T16:59:48.045Z,5.83
2023-06-14T17:02:14.708Z,6.25
2023-06-14T17:04:41.475Z,5.97
2023-06-14T17:07:08.096Z,5.10
2023-06-14T17:09:34.688Z,5.63
2023-06-14T17:12:01.422Z,5.47
2023-06-14T17:14:28.142Z,4.65
2023-06-14T17:16:54.849Z,6.38
2023-06-14T17:19:21.408Z,6.68
2023-06-14T17:21:47.964Z,4.95
2023-06-14T17:24:24.953Z,6.43
2023-06-14T17:26:52.153Z,6.57
2023-06-14T17:29:18.685Z,5.30
2023-06-14T17:31:45.384Z,5.40
2023-06-14T17:34:12.320Z,5.75
2023-06-14T17:36:38.817Z,7.13
2023-06-14T17:39:05.335Z,5.72
2023-06-14T17:41:33.430Z,6.68
2023-06-14T17:44:00.477Z,5.40
2023-06-14T17:46:27.045Z,7.63
2023-06-14T17:48:53.648Z,5.47
2023-06-14T17:51:20.392Z,5.63
2023-06-14T17:53:47.176Z,5.53
2023-06-14T17:56:13.982Z,9.30
2023-06-14T17:58:40.498Z,6.20
2023-06-14T18:01:07.018Z,6.70
2023-06-14T18:03:33.717Z,8.60
2023-06-14T18:06:00.389Z,5.90
2023-06-14T18:08:27.310Z,10.18
2023-06-14T18:10:53.959Z,5.40
2023-06-14T18:13:20.586Z,7.90
2023-06-14T18:15:47.281Z,6.45
2023-06-14T18:18:14.065Z,7.45
2023-06-14T18:20:40.607Z,4.75
2023-06-14T18:23:08.034Z,6.47
2023-06-14T18:25:36.042Z,6.37
2023-06-14T18:28:02.561Z,6.47
2023-06-14T18:30:29.119Z,6.13
2023-06-14T18:32:55.744Z,5.60
2023-06-14T18:35:22.358Z,5.70
2023-06-14T18:37:48.888Z,8.33
2023-06-14T18:40:15.878Z,7.43
2023-06-14T18:42:42.968Z,5.60
2023-06-14T18:45:10.234Z,5.38
2023-06-14T18:47:37.017Z,6.25
2023-06-14T18:50:03.735Z,5.17
2023-06-14T18:52:30.345Z,7.68
2023-06-14T18:54:56.901Z,8.13
2023-06-14T18:57:23.463Z,5.20
2023-06-14T18:59:49.965Z,7.95
2023-06-14T19:02:16.692Z,6.93
2023-06-14T19:04:43.391Z,4.93
2023-06-14T19:07:10.031Z,6.20
2023-06-14T19:09:36.610Z,8.18
2023-06-14T19:12:03.439Z,5.63
2023-06-14T19:14:29.939Z,5.33
2023-06-14T19:16:56.503Z,6.93
2023-06-14T19:19:23.105Z,6.47
2023-06-14T19:21:49.833Z,5.88
2023-06-14T19:24:16.397Z,5.85
2023-06-14T19:26:43.802Z,6.03
2023-06-14T19:29:10.472Z,6.63
2023-06-14T19:31:37.373Z,6.97
2023-06-14T19:34:03.999Z,7.38
2023-06-14T19:36:30.675Z,5.70
2023-06-14T19:38:57.138Z,5.60
2023-06-14T19:41:23.884Z,7.53
2023-06-14T19:43:50.602Z,7.38
2023-06-14T19:46:17.160Z,5.78
2023-06-14T19:48:43.837Z,6.03
2023-06-14T19:51:10.540Z,6.40
2023-06-14T19:53:37.213Z,7.10
2023-06-14T19:56:03.832Z,8.40
2023-06-14T19:58:30.363Z,6.93
2023-06-14T20:00:57.046Z,7.90
2023-06-14T20:03:23.616Z,6.83
2023-06-14T20:05:50.248Z,7.50
2023-06-14T20:08:17.025Z,6.55
2023-06-14T20:10:43.529Z,6.47
2023-06-14T20:13:10.189Z,6.90
2023-06-14T20:15:36.710Z,7.77
2023-06-14T20:18:03.365Z,6.72
2023-06-14T20:20:30.094Z,6.88
2023-06-14T20:22:56.624Z,7.85
2023-06-14T20:25:23.220Z,7.78
2023-06-14T20:27:49.726Z,7.37
2023-06-14T20:30:16.589Z,8.65
2023-06-14T20:32:43.452Z,7.35
2023-06-14T20:35:10.092Z,7.20
2023-06-14T20:37:36.821Z,8.52
2023-06-14T20:40:03.647Z,7.63
2023-06-14T20:42:31.149Z,7.68
2023-06-14T20:44:58.531Z,6.43
2023-06-14T20:47:25.807Z,8.95
2023-06-14T20:49:52.640Z,7.07
2023-06-14T20:52:19.172Z,6.50
2023-06-14T20:54:45.787Z,12.80
2023-06-14T20:57:12.629Z,8.90
2023-06-14T20:59:40.302Z,7.70
2023-06-14T21:02:08.132Z,6.57
2023-06-14T21:04:34.592Z,7.80
2023-06-14T21:07:01.510Z,6.70
2023-06-14T21:09:28.027Z,7.35
2023-06-14T21:11:54.516Z,11.73
2023-06-14T21:14:21.094Z,6.78
2023-06-14T21:16:47.680Z,9.77
2023-06-14T21:19:14.336Z,7.30
2023-06-14T21:21:40.969Z,7.53
2023-06-14T21:24:07.557Z,8.82
2023-06-14T21:26:34.246Z,8.35
2023-06-14T21:29:01.636Z,7.43
2023-06-14T21:31:28.206Z,7.38
2023-06-14T21:33:54.817Z,7.60
2023-06-14T21:36:21.350Z,8.70
2023-06-14T21:38:47.892Z,7.15
2023-06-14T21:41:14.671Z,8.50
2023-06-14T21:43:41.259Z,9.05
2023-06-14T21:46:07.883Z,9.00
2023-06-14T21:48:34.471Z,6.57
2023-06-14T21:51:00.935Z,9.02
2023-06-14T21:53:27.470Z,8.33
2023-06-14T21:55:54.228Z,6.45
2023-06-14T21:58:20.932Z,6.47
2023-06-14T22:00:47.525Z,8.65
2023-06-14T22:03:14.277Z,7.10
2023-06-14T22:05:40.872Z,7.10
2023-06-14T22:08:07.399Z,7.50
2023-06-14T22:10:33.863Z,7.25
2023-06-14T22:13:00.378Z,9.15
2023-06-14T22:15:27.111Z,6.70
2023-06-14T22:17:54.213Z,7.90
2023-06-14T22:20:20.777Z,6.95
2023-06-14T22:22:47.410Z,6.55
2023-06-14T22:25:13.878Z,8.50
2023-06-14T22:27:40.701Z,8.70
2023-06-14T22:30:07.957Z,8.70
2023-06-14T22:32:34.564Z,8.57
2023-06-14T22:35:01.177Z,7.68
2023-06-14T22:37:27.665Z,8.18
2023-06-14T22:39:54.217Z,8.45
2023-06-14T22:42:20.731Z,6.83
2023-06-14T22:44:47.298Z,7.78
2023-06-14T22:47:13.809Z,6.82
2023-06-14T22:49:40.301Z,7.65
2023-06-14T22:52:07.551Z,7.22
2023-06-14T22:54:34.057Z,9.43
2023-06-14T22:57:00.666Z,8.25
2023-06-14T22:59:27.141Z,6.95
2023-06-14T23:01:54.936Z,6.88
2023-06-14T23:04:21.573Z,8.02
2023-06-14T23:06:48.254Z,9.07
2023-06-14T23:09:14.830Z,7.63
2023-06-14T23:11:41.319Z,8.48
2023-06-14T23:14:07.770Z,7.35
2023-06-14T23:16:35.420Z,7.53
2023-06-14T23:19:02.136Z,7.53
2023-06-14T23:21:28.681Z,7.57
2023-06-14T23:23:55.362Z,8.25
2023-06-14T23:26:22.382Z,7.28
2023-06-14T23:28:49.099Z,9.95
2023-06-14T23:31:15.887Z,7.20
2023-06-14T23:33:42.503Z,8.02
2023-06-14T23:36:09.030Z,7.40
2023-06-14T23:38:35.985Z,7.80
2023-06-14T23:41:02.576Z,8.00
2023-06-14T23:43:31.264Z,8.10
2023-06-14T23:45:57.824Z,9.32
2023-06-14T23:48:24.971Z,8.77
2023-06-14T23:50:51.447Z,8.95
2023-06-14T23:53:18.074Z,8.38
2023-06-14T23:55:44.579Z,8.23
2023-06-14T23:58:11.299Z,8.85
